sensor_id;sensor_type;location;lat;lon;timestamp;pressure;altitude;pressure_sealevel;temperature;humidity
71976;BME280;68326;52.124;5.424;2024-01-16T00:01:31;100877.06;;;2.63;87.42
71976;BME280;68326;52.124;5.424;2024-01-16T00:03:58;100870.28;;;2.61;87.36
71976;BME280;68326;52.124;5.424;2024-01-16T00:06:24;100865.22;;;2.56;87.15
71976;BME280;68326;52.124;5.424;2024-01-16T00:08:51;100875.56;;;2.53;87.34
71976;BME280;68326;52.124;5.424;2024-01-16T00:11:17;100873.84;;;2.51;87.15
71976;BME280;68326;52.124;5.424;2024-01-16T00:13:44;100877.34;;;2.48;86.68
71976;BME280;68326;52.124;5.424;2024-01-16T00:16:10;100880.81;;;2.44;86.57
71976;BME280;68326;52.124;5.424;2024-01-16T00:18:37;100877.47;;;2.40;87.09
71976;BME280;68326;52.124;5.424;2024-01-16T00:21:03;100892.06;;;2.37;86.46
71976;BME280;68326;52.124;5.424;2024-01-16T00:23:30;100889.53;;;2.34;86.63
71976;BME280;68326;52.124;5.424;2024-01-16T00:25:59;100890.44;;;2.33;86.88
71976;BME280;68326;52.124;5.424;2024-01-16T00:28:26;100906.66;;;2.35;86.52
71976;BME280;68326;52.124;5.424;2024-01-16T00:30:52;100916.00;;;2.40;87.10
71976;BME280;68326;52.124;5.424;2024-01-16T00:33:19;100899.69;;;2.43;87.26
71976;BME280;68326;52.124;5.424;2024-01-16T00:35:45;100901.34;;;2.47;87.14
71976;BME280;68326;52.124;5.424;2024-01-16T00:38:12;100887.56;;;2.51;87.17
71976;BME280;68326;52.124;5.424;2024-01-16T00:40:39;100873.84;;;2.51;87.46
71976;BME280;68326;52.124;5.424;2024-01-16T00:43:05;100879.97;;;2.45;87.43
71976;BME280;68326;52.124;5.424;2024-01-16T00:45:32;100877.41;;;2.45;87.79
71976;BME280;68326;52.124;5.424;2024-01-16T00:47:58;100884.28;;;2.41;88.04
71976;BME280;68326;52.124;5.424;2024-01-16T00:50:25;100882.63;;;2.40;87.53
71976;BME280;68326;52.124;5.424;2024-01-16T00:52:52;100882.78;;;2.30;87.61
71976;BME280;68326;52.124;5.424;2024-01-16T00:55:19;100887.13;;;2.23;87.17
71976;BME280;68326;52.124;5.424;2024-01-16T00:57:45;100894.91;;;2.18;88.01
71976;BME280;68326;52.124;5.424;2024-01-16T01:00:12;100898.31;;;2.20;87.95
71976;BME280;68326;52.124;5.424;2024-01-16T01:02:39;100894.91;;;2.20;87.34
71976;BME280;68326;52.124;5.424;2024-01-16T01:05:06;100906.84;;;2.22;87.60
71976;BME280;68326;52.124;5.424;2024-01-16T01:07:33;100901.66;;;2.26;87.09
71976;BME280;68326;52.124;5.424;2024-01-16T01:10:00;100907.56;;;2.31;87.64
71976;BME280;68326;52.124;5.424;2024-01-16T01:12:26;100905.03;;;2.29;86.77
71976;BME280;68326;52.124;5.424;2024-01-16T01:14:53;100905.09;;;2.24;86.61
71976;BME280;68326;52.124;5.424;2024-01-16T01:17:19;100911.19;;;2.17;87.07
71976;BME280;68326;52.124;5.424;2024-01-16T01:19:46;100900.09;;;2.15;86.74
71976;BME280;68326;52.124;5.424;2024-01-16T01:22:12;100906.22;;;2.07;86.11
71976;BME280;68326;52.124;5.424;2024-01-16T01:24:39;100908.75;;;2.08;87.78
71976;BME280;68326;52.124;5.424;2024-01-16T01:27:05;100902.78;;;2.08;86.25
71976;BME280;68326;52.124;5.424;2024-01-16T01:29:32;100898.56;;;2.03;87.76
71976;BME280;68326;52.124;5.424;2024-01-16T01:31:59;100902.84;;;2.04;86.93
71976;BME280;68326;52.124;5.424;2024-01-16T01:34:25;100898.47;;;2.10;87.64
71976;BME280;68326;52.124;5.424;2024-01-16T01:36:52;100902.66;;;2.15;87.19
71976;BME280;68326;52.124;5.424;2024-01-16T01:39:18;100895.81;;;2.17;87.10
71976;BME280;68326;52.124;5.424;2024-01-16T01:41:45;100902.63;;;2.18;86.98
71976;BME280;68326;52.124;5.424;2024-01-16T01:44:11;100891.53;;;2.16;86.46
71976;BME280;68326;52.124;5.424;2024-01-16T01:46:43;100905.31;;;2.11;86.24
71976;BME280;68326;52.124;5.424;2024-01-16T01:49:12;100900.94;;;2.16;87.27
71976;BME280;68326;52.124;5.424;2024-01-16T01:51:40;100899.13;;;2.22;86.81
71976;BME280;68326;52.124;5.424;2024-01-16T01:54:07;100913.69;;;2.23;86.69
71976;BME280;68326;52.124;5.424;2024-01-16T01:56:34;100920.50;;;2.24;87.12
71976;BME280;68326;52.124;5.424;2024-01-16T01:59:00;100954.69;;;2.27;86.49
71976;BME280;68326;52.124;5.424;2024-01-16T02:01:29;100959.00;;;2.26;87.03
71976;BME280;68326;52.124;5.424;2024-01-16T02:03:59;100962.34;;;2.31;87.13
71976;BME280;68326;52.124;5.424;2024-01-16T02:06:25;100955.59;;;2.22;87.74
71976;BME280;68326;52.124;5.424;2024-01-16T02:08:53;100944.50;;;2.23;88.08
71976;BME280;68326;52.124;5.424;2024-01-16T02:11:19;100953.03;;;2.26;88.14
71976;BME280;68326;52.124;5.424;2024-01-16T02:13:46;100949.50;;;2.31;88.46
71976;BME280;68326;52.124;5.424;2024-01-16T02:16:22;100947.75;;;2.35;88.75
71976;BME280;68326;52.124;5.424;2024-01-16T02:18:51;100935.72;;;2.37;89.61
71976;BME280;68326;52.124;5.424;2024-01-16T02:21:21;100938.31;;;2.34;88.74
71976;BME280;68326;52.124;5.424;2024-01-16T02:23:48;100929.81;;;2.32;89.13
71976;BME280;68326;52.124;5.424;2024-01-16T02:26:15;100927.28;;;2.29;89.89
71976;BME280;68326;52.124;5.424;2024-01-16T02:28:42;100919.59;;;2.29;89.69
71976;BME280;68326;52.124;5.424;2024-01-16T02:31:09;100911.88;;;2.29;89.45
71976;BME280;68326;52.124;5.424;2024-01-16T02:33:35;100911.91;;;2.27;89.56
71976;BME280;68326;52.124;5.424;2024-01-16T02:36:02;100915.34;;;2.26;89.19
71976;BME280;68326;52.124;5.424;2024-01-16T02:38:28;100908.47;;;2.28;89.65
71976;BME280;68326;52.124;5.424;2024-01-16T02:40:55;100917.00;;;2.30;89.95
71976;BME280;68326;52.124;5.424;2024-01-16T02:43:22;100912.72;;;2.29;89.77
71976;BME280;68326;52.124;5.424;2024-01-16T02:45:49;100918.66;;;2.34;90.44
71976;BME280;68326;52.124;5.424;2024-01-16T02:48:15;100919.41;;;2.39;89.76
71976;BME280;68326;52.124;5.424;2024-01-16T02:50:42;100931.41;;;2.40;90.27
71976;BME280;68326;52.124;5.424;2024-01-16T02:53:09;100928.75;;;2.45;89.80
71976;BME280;68326;52.124;5.424;2024-01-16T02:55:35;100921.97;;;2.41;90.36
71976;BME280;68326;52.124;5.424;2024-01-16T02:58:02;100917.66;;;2.44;90.13
71976;BME280;68326;52.124;5.424;2024-01-16T03:00:29;100912.47;;;2.46;89.71
71976;BME280;68326;52.124;5.424;2024-01-16T03:02:56;100920.16;;;2.46;89.89
71976;BME280;68326;52.124;5.424;2024-01-16T03:05:22;100915.84;;;2.50;90.16
71976;BME280;68326;52.124;5.424;2024-01-16T03:07:49;100911.53;;;2.50;89.94
71976;BME280;68326;52.124;5.424;2024-01-16T03:10:16;100899.59;;;2.48;89.75
71976;BME280;68326;52.124;5.424;2024-01-16T03:12:42;100909.91;;;2.46;89.93
71976;BME280;68326;52.124;5.424;2024-01-16T03:15:09;100922.66;;;2.51;89.64
71976;BME280;68326;52.124;5.424;2024-01-16T03:17:36;100931.31;;;2.47;89.92
71976;BME280;68326;52.124;5.424;2024-01-16T03:20:03;100930.41;;;2.49;90.21
71976;BME280;68326;52.124;5.424;2024-01-16T03:22:30;100938.97;;;2.50;89.97
71976;BME280;68326;52.124;5.424;2024-01-16T03:24:56;100945.75;;;2.54;90.10
71976;BME280;68326;52.124;5.424;2024-01-16T03:27:23;100944.91;;;2.52;89.44
71976;BME280;68326;52.124;5.424;2024-01-16T03:29:50;100949.97;;;2.56;89.90
71976;BME280;68326;52.124;5.424;2024-01-16T03:32:16;100935.34;;;2.61;90.05
71976;BME280;68326;52.124;5.424;2024-01-16T03:34:43;100939.59;;;2.64;89.99
71976;BME280;68326;52.124;5.424;2024-01-16T03:37:10;100931.91;;;2.62;90.55
71976;BME280;68326;52.124;5.424;2024-01-16T03:39:36;100938.72;;;2.63;90.06
71976;BME280;68326;52.124;5.424;2024-01-16T03:42:03;100936.22;;;2.60;90.07
71976;BME280;68326;52.124;5.424;2024-01-16T03:44:29;100937.13;;;2.58;90.23
71976;BME280;68326;52.124;5.424;2024-01-16T03:46:56;100933.59;;;2.63;90.75
71976;BME280;68326;52.124;5.424;2024-01-16T03:49:22;100934.38;;;2.67;90.78
71976;BME280;68326;52.124;5.424;2024-01-16T03:51:49;100945.50;;;2.69;90.83
71976;BME280;68326;52.124;5.424;2024-01-16T03:54:16;100934.47;;;2.62;90.58
71976;BME280;68326;52.124;5.424;2024-01-16T03:56:42;100937.88;;;2.64;90.57
71976;BME280;68326;52.124;5.424;2024-01-16T03:59:09;100925.00;;;2.66;90.63
71976;BME280;68326;52.124;5.424;2024-01-16T04:01:35;100930.22;;;2.61;90.40
71976;BME280;68326;52.124;5.424;2024-01-16T04:04:04;100931.16;;;2.56;90.22
71976;BME280;68326;52.124;5.424;2024-01-16T04:06:33;100933.72;;;2.56;89.67
71976;BME280;68326;52.124;5.424;2024-01-16T04:09:01;100929.44;;;2.55;89.58
71976;BME280;68326;52.124;5.424;2024-01-16T04:11:27;100931.16;;;2.56;90.09
71976;BME280;68326;52.124;5.424;2024-01-16T04:13:55;100921.81;;;2.52;89.20
71976;BME280;68326;52.124;5.424;2024-01-16T04:16:21;100914.94;;;2.52;89.14
71976;BME280;68326;52.124;5.424;2024-01-16T04:18:48;100902.16;;;2.48;89.19
71976;BME280;68326;52.124;5.424;2024-01-16T04:21:14;100890.16;;;2.50;89.22
71976;BME280;68326;52.124;5.424;2024-01-16T04:23:45;100893.63;;;2.47;89.81
71976;BME280;68326;52.124;5.424;2024-01-16T04:26:12;100891.84;;;2.51;89.45
71976;BME280;68326;52.124;5.424;2024-01-16T04:28:39;100902.94;;;2.53;88.89
71976;BME280;68326;52.124;5.424;2024-01-16T04:31:05;100902.25;;;2.41;89.13
71976;BME280;68326;52.124;5.424;2024-01-16T04:33:33;100906.59;;;2.38;89.15
71976;BME280;68326;52.124;5.424;2024-01-16T04:35:59;100903.25;;;2.33;89.77
71976;BME280;68326;52.124;5.424;2024-01-16T04:38:26;100896.38;;;2.35;89.24
71976;BME280;68326;52.124;5.424;2024-01-16T04:40:52;100901.50;;;2.36;89.63
71976;BME280;68326;52.124;5.424;2024-01-16T04:43:19;100905.75;;;2.37;90.00
71976;BME280;68326;52.124;5.424;2024-01-16T04:45:45;100900.69;;;2.33;89.82
71976;BME280;68326;52.124;5.424;2024-01-16T04:48:12;100907.56;;;2.32;89.44
71976;BME280;68326;52.124;5.424;2024-01-16T04:50:39;100901.53;;;2.35;89.31
71976;BME280;68326;52.124;5.424;2024-01-16T04:53:05;100902.41;;;2.32;90.34
71976;BME280;68326;52.124;5.424;2024-01-16T04:55:32;100896.53;;;2.26;89.53
71976;BME280;68326;52.124;5.424;2024-01-16T04:57:59;100905.00;;;2.31;90.33
71976;BME280;68326;52.124;5.424;2024-01-16T05:00:26;100904.94;;;2.35;90.21
71976;BME280;68326;52.124;5.424;2024-01-16T05:02:53;100892.81;;;2.43;90.42
71976;BME280;68326;52.124;5.424;2024-01-16T05:05:20;100896.22;;;2.44;89.49
71976;BME280;68326;52.124;5.424;2024-01-16T05:07:46;100894.56;;;2.40;90.19
71976;BME280;68326;52.124;5.424;2024-01-16T05:10:13;100885.19;;;2.40;89.82
71976;BME280;68326;52.124;5.424;2024-01-16T05:12:40;100876.56;;;2.43;89.86
71976;BME280;68326;52.124;5.424;2024-01-16T05:15:07;100877.50;;;2.37;90.20
71976;BME280;68326;52.124;5.424;2024-01-16T05:17:35;100873.22;;;2.38;90.20
71976;BME280;68326;52.124;5.424;2024-01-16T05:20:02;100869.81;;;2.37;89.88
71976;BME280;68326;52.124;5.424;2024-01-16T05:22:31;100866.41;;;2.37;89.88
71976;BME280;68326;52.124;5.424;2024-01-16T05:24:59;100869.06;;;2.31;89.72
71976;BME280;68326;52.124;5.424;2024-01-16T05:27:26;100867.41;;;2.27;89.93
71976;BME280;68326;52.124;5.424;2024-01-16T05:29:52;100854.63;;;2.23;90.19
71976;BME280;68326;52.124;5.424;2024-01-16T05:32:19;100853.81;;;2.21;89.84
71976;BME280;68326;52.124;5.424;2024-01-16T05:34:45;100852.94;;;2.21;89.66
71976;BME280;68326;52.124;5.424;2024-01-16T05:37:12;100846.13;;;2.20;90.78
71976;BME280;68326;52.124;5.424;2024-01-16T05:39:38;100846.06;;;2.23;90.29
71976;BME280;68326;52.124;5.424;2024-01-16T05:42:05;100852.06;;;2.23;90.74
71976;BME280;68326;52.124;5.424;2024-01-16T05:44:32;100849.53;;;2.19;90.48
71976;BME280;68326;52.124;5.424;2024-01-16T05:46:59;100840.91;;;2.24;90.43
71976;BME280;68326;52.124;5.424;2024-01-16T05:49:25;100833.22;;;2.24;90.59
71976;BME280;68326;52.124;5.424;2024-01-16T05:51:52;100839.19;;;2.25;90.24
71976;BME280;68326;52.124;5.424;2024-01-16T05:54:18;100834.09;;;2.23;90.87
71976;BME280;68326;52.124;5.424;2024-01-16T05:56:45;100827.25;;;2.22;90.36
71976;BME280;68326;52.124;5.424;2024-01-16T05:59:11;100832.44;;;2.19;90.40
71976;BME280;68326;52.124;5.424;2024-01-16T06:01:38;100837.59;;;2.19;90.77
71976;BME280;68326;52.124;5.424;2024-01-16T06:04:04;100848.72;;;2.18;90.92
71976;BME280;68326;52.124;5.424;2024-01-16T06:06:31;100834.22;;;2.14;90.98
71976;BME280;68326;52.124;5.424;2024-01-16T06:08:57;100836.72;;;2.19;90.48
71976;BME280;68326;52.124;5.424;2024-01-16T06:11:32;100834.16;;;2.19;90.80
71976;BME280;68326;52.124;5.424;2024-01-16T06:13:59;100841.06;;;2.17;91.19
71976;BME280;68326;52.124;5.424;2024-01-16T06:16:26;100837.66;;;2.15;91.22
71976;BME280;68326;52.124;5.424;2024-01-16T06:18:52;100838.50;;;2.15;90.97
71976;BME280;68326;52.124;5.424;2024-01-16T06:21:19;100834.22;;;2.16;91.51
71976;BME280;68326;52.124;5.424;2024-01-16T06:23:49;100834.97;;;2.21;91.66
71976;BME280;68326;52.124;5.424;2024-01-16T06:26:16;100844.31;;;2.27;91.83
71976;BME280;68326;52.124;5.424;2024-01-16T06:28:44;100846.88;;;2.27;91.58
71976;BME280;68326;52.124;5.424;2024-01-16T06:31:10;100854.53;;;2.30;91.47
71976;BME280;68326;52.124;5.424;2024-01-16T06:33:38;100857.06;;;2.31;91.75
71976;BME280;68326;52.124;5.424;2024-01-16T06:36:05;100857.06;;;2.31;91.41
71976;BME280;68326;52.124;5.424;2024-01-16T06:38:31;100863.06;;;2.32;91.53
71976;BME280;68326;52.124;5.424;2024-01-16T06:40:58;100867.31;;;2.33;92.13
71976;BME280;68326;52.124;5.424;2024-01-16T06:43:25;100861.28;;;2.34;91.98
71976;BME280;68326;52.124;5.424;2024-01-16T06:45:51;100860.50;;;2.30;91.43
71976;BME280;68326;52.124;5.424;2024-01-16T06:48:18;100863.06;;;2.32;91.35
71976;BME280;68326;52.124;5.424;2024-01-16T06:50:45;100856.22;;;2.32;91.72
71976;BME280;68326;52.124;5.424;2024-01-16T06:53:11;100851.84;;;2.36;91.22
71976;BME280;68326;52.124;5.424;2024-01-16T06:55:42;100850.16;;;2.36;91.25
71976;BME280;68326;52.124;5.424;2024-01-16T06:58:08;100858.69;;;2.38;92.00
71976;BME280;68326;52.124;5.424;2024-01-16T07:00:36;100854.38;;;2.39;92.03
71976;BME280;68326;52.124;5.424;2024-01-16T07:03:03;100854.28;;;2.43;92.28
71976;BME280;68326;52.124;5.424;2024-01-16T07:05:29;100855.94;;;2.49;91.53
71976;BME280;68326;52.124;5.424;2024-01-16T07:07:56;100858.50;;;2.49;91.36
71976;BME280;68326;52.124;5.424;2024-01-16T07:10:23;100866.22;;;2.46;91.21
71976;BME280;68326;52.124;5.424;2024-01-16T07:12:50;100862.00;;;2.45;91.80
71976;BME280;68326;52.124;5.424;2024-01-16T07:15:18;100857.69;;;2.45;91.92
71976;BME280;68326;52.124;5.424;2024-01-16T07:17:45;100863.56;;;2.52;91.98
71976;BME280;68326;52.124;5.424;2024-01-16T07:20:12;100856.66;;;2.57;92.41
71976;BME280;68326;52.124;5.424;2024-01-16T07:22:39;100857.47;;;2.59;91.15
71976;BME280;68326;52.124;5.424;2024-01-16T07:25:08;100858.44;;;2.52;91.07
71976;BME280;68326;52.124;5.424;2024-01-16T07:27:35;100866.22;;;2.48;91.61
71976;BME280;68326;52.124;5.424;2024-01-16T07:30:04;100865.28;;;2.53;92.05
71976;BME280;68326;52.124;5.424;2024-01-16T07:32:31;100865.22;;;2.56;92.22
71976;BME280;68326;52.124;5.424;2024-01-16T07:34:59;100863.47;;;2.58;91.63
71976;BME280;68326;52.124;5.424;2024-01-16T07:37:25;100865.28;;;2.53;91.59
71976;BME280;68326;52.124;5.424;2024-01-16T07:39:52;100869.44;;;2.59;92.08
71976;BME280;68326;52.124;5.424;2024-01-16T07:42:18;100877.13;;;2.60;90.87
71976;BME280;68326;52.124;5.424;2024-01-16T07:44:44;100878.94;;;2.55;91.56
71976;BME280;68326;52.124;5.424;2024-01-16T07:47:11;100880.63;;;2.56;91.23
71976;BME280;68326;52.124;5.424;2024-01-16T07:49:38;100884.00;;;2.58;91.26
71976;BME280;68326;52.124;5.424;2024-01-16T07:52:05;100872.91;;;2.58;91.15
71976;BME280;68326;52.124;5.424;2024-01-16T07:54:32;100878.94;;;2.55;90.86
71976;BME280;68326;52.124;5.424;2024-01-16T07:56:59;100882.34;;;2.57;90.79
71976;BME280;68326;52.124;5.424;2024-01-16T07:59:25;100875.44;;;2.59;90.79
71976;BME280;68326;52.124;5.424;2024-01-16T08:01:53;100872.00;;;2.59;90.21
71976;BME280;68326;52.124;5.424;2024-01-16T08:04:20;100880.63;;;2.56;90.07
71976;BME280;68326;52.124;5.424;2024-01-16T08:06:46;100873.00;;;2.52;90.69
71976;BME280;68326;52.124;5.424;2024-01-16T08:09:13;100879.88;;;2.51;90.12
71976;BME280;68326;52.124;5.424;2024-01-16T08:11:40;100878.94;;;2.55;90.42
71976;BME280;68326;52.124;5.424;2024-01-16T08:14:07;100879.72;;;2.59;90.39
71976;BME280;68326;52.124;5.424;2024-01-16T08:16:33;100882.44;;;2.51;89.76
71976;BME280;68326;52.124;5.424;2024-01-16T08:19:00;100878.94;;;2.55;90.08
71976;BME280;68326;52.124;5.424;2024-01-16T08:21:26;100872.91;;;2.58;89.60
71976;BME280;68326;52.124;5.424;2024-01-16T08:23:53;100872.91;;;2.56;89.42
71976;BME280;68326;52.124;5.424;2024-01-16T08:26:19;100877.22;;;2.54;89.56
71976;BME280;68326;52.124;5.424;2024-01-16T08:28:46;100878.06;;;2.55;89.68
71976;BME280;68326;52.124;5.424;2024-01-16T08:31:12;100877.22;;;2.54;90.06
71976;BME280;68326;52.124;5.424;2024-01-16T08:33:42;100879.81;;;2.53;88.97
71976;BME280;68326;52.124;5.424;2024-01-16T08:36:14;100872.91;;;2.56;89.70
71976;BME280;68326;52.124;5.424;2024-01-16T08:38:41;100876.31;;;2.58;88.63
71976;BME280;68326;52.124;5.424;2024-01-16T08:41:08;100877.22;;;2.54;88.52
71976;BME280;68326;52.124;5.424;2024-01-16T08:43:35;100878.97;;;2.54;88.75
71976;BME280;68326;52.124;5.424;2024-01-16T08:46:02;100880.69;;;2.53;88.58
71976;BME280;68326;52.124;5.424;2024-01-16T08:48:29;100878.13;;;2.53;88.03
71976;BME280;68326;52.124;5.424;2024-01-16T08:50:56;100873.00;;;2.52;87.70
71976;BME280;68326;52.124;5.424;2024-01-16T08:53:23;100884.19;;;2.49;87.65
71976;BME280;68326;52.124;5.424;2024-01-16T08:55:50;100879.97;;;2.45;88.05
71976;BME280;68326;52.124;5.424;2024-01-16T08:58:16;100880.88;;;2.41;87.50
71976;BME280;68326;52.124;5.424;2024-01-16T09:00:43;100873.13;;;2.44;87.84
71976;BME280;68326;52.124;5.424;2024-01-16T09:03:11;100879.13;;;2.43;87.56
71976;BME280;68326;52.124;5.424;2024-01-16T09:05:38;100879.94;;;2.47;87.52
71976;BME280;68326;52.124;5.424;2024-01-16T09:08:06;100880.06;;;2.39;87.91
71976;BME280;68326;52.124;5.424;2024-01-16T09:10:36;100871.47;;;2.40;87.81
71976;BME280;68326;52.124;5.424;2024-01-16T09:13:02;100873.19;;;2.39;87.47
71976;BME280;68326;52.124;5.424;2024-01-16T09:15:29;100879.06;;;2.46;87.48
71976;BME280;68326;52.124;5.424;2024-01-16T09:17:55;100882.28;;;2.59;87.24
71976;BME280;68326;52.124;5.424;2024-01-16T09:20:22;100884.09;;;2.54;87.15
71976;BME280;68326;52.124;5.424;2024-01-16T09:22:50;100877.25;;;2.53;86.58
71976;BME280;68326;52.124;5.424;2024-01-16T09:25:16;100871.25;;;2.55;86.86
71976;BME280;68326;52.124;5.424;2024-01-16T09:27:43;100874.66;;;2.54;86.86
71976;BME280;68326;52.124;5.424;2024-01-16T09:30:10;100872.97;;;2.53;86.65
71976;BME280;68326;52.124;5.424;2024-01-16T09:32:39;100872.91;;;2.58;86.67
71976;BME280;68326;52.124;5.424;2024-01-16T09:35:05;100878.97;;;2.54;86.73
71976;BME280;68326;52.124;5.424;2024-01-16T09:37:35;100885.66;;;2.62;86.02
71976;BME280;68326;52.124;5.424;2024-01-16T09:40:02;100878.78;;;2.63;86.48
71976;BME280;68326;52.124;5.424;2024-01-16T09:42:31;100876.13;;;2.68;86.67
71976;BME280;68326;52.124;5.424;2024-01-16T09:45:00;100875.22;;;2.72;86.01
71976;BME280;68326;52.124;5.424;2024-01-16T09:47:27;100867.56;;;2.69;85.86
71976;BME280;68326;52.124;5.424;2024-01-16T09:49:54;100868.25;;;2.78;85.89
71976;BME280;68326;52.124;5.424;2024-01-16T09:52:21;100864.63;;;2.90;85.44
71976;BME280;68326;52.124;5.424;2024-01-16T09:54:47;100868.72;;;3.00;85.20
71976;BME280;68326;52.124;5.424;2024-01-16T09:57:14;100871.94;;;3.12;84.06
71976;BME280;68326;52.124;5.424;2024-01-16T09:59:44;100869.31;;;3.15;84.18
71976;BME280;68326;52.124;5.424;2024-01-16T10:02:11;100868.38;;;3.19;83.45
71976;BME280;68326;52.124;5.424;2024-01-16T10:04:39;100859.28;;;2.99;83.26
71976;BME280;68326;52.124;5.424;2024-01-16T10:07:09;100852.28;;;3.08;83.76
71976;BME280;68326;52.124;5.424;2024-01-16T10:09:38;100857.34;;;3.12;83.93
71976;BME280;68326;52.124;5.424;2024-01-16T10:12:05;100861.63;;;3.13;83.89
71976;BME280;68326;52.124;5.424;2024-01-16T10:14:33;100855.66;;;3.11;83.74
71976;BME280;68326;52.124;5.424;2024-01-16T10:17:01;100838.38;;;3.18;83.30
71976;BME280;68326;52.124;5.424;2024-01-16T10:19:32;100841.16;;;3.09;82.79
71976;BME280;68326;52.124;5.424;2024-01-16T10:22:19;100842.84;;;3.08;83.20
71976;BME280;68326;52.124;5.424;2024-01-16T10:25:10;100849.56;;;3.17;83.11
71976;BME280;68326;52.124;5.424;2024-01-16T10:27:39;100844.97;;;3.31;82.25
71976;BME280;68326;52.124;5.424;2024-01-16T10:30:06;100832.78;;;3.39;83.21
71976;BME280;68326;52.124;5.424;2024-01-16T10:32:38;100834.38;;;3.46;81.57
71976;BME280;68326;52.124;5.424;2024-01-16T10:37:50;100836.84;;;3.51;81.91
71976;BME280;68326;52.124;5.424;2024-01-16T10:40:21;100834.59;;;3.76;81.92
71976;BME280;68326;52.124;5.424;2024-01-16T10:43:05;100828.06;;;3.99;82.07
71976;BME280;68326;52.124;5.424;2024-01-16T10:45:32;100828.81;;;4.04;81.09
71976;BME280;68326;52.124;5.424;2024-01-16T10:48:06;100837.22;;;4.11;80.66
71976;BME280;68326;52.124;5.424;2024-01-16T10:50:37;100837.81;;;4.22;79.79
71976;BME280;68326;52.124;5.424;2024-01-16T10:53:08;100844.06;;;4.46;79.76
71976;BME280;68326;52.124;5.424;2024-01-16T10:55:49;100837.56;;;4.31;79.53
71976;BME280;68326;52.124;5.424;2024-01-16T10:58:22;100834.81;;;4.39;79.24
71976;BME280;68326;52.124;5.424;2024-01-16T11:00:52;100832.13;;;4.43;78.07
71976;BME280;68326;52.124;5.424;2024-01-16T11:03:37;100823.00;;;4.32;77.93
71976;BME280;68326;52.124;5.424;2024-01-16T11:06:06;100825.56;;;4.32;79.00
71976;BME280;68326;52.124;5.424;2024-01-16T11:08:38;100828.72;;;4.43;77.89
71976;BME280;68326;52.124;5.424;2024-01-16T11:11:06;100828.47;;;4.52;77.49
71976;BME280;68326;52.124;5.424;2024-01-16T11:13:35;100826.00;;;4.47;77.55
71976;BME280;68326;52.124;5.424;2024-01-16T11:16:03;100813.75;;;4.57;77.59
71976;BME280;68326;52.124;5.424;2024-01-16T11:18:31;100805.69;;;4.69;76.22
71976;BME280;68326;52.124;5.424;2024-01-16T11:21:13;100806.28;;;5.10;76.33
71976;BME280;68326;52.124;5.424;2024-01-16T11:23:44;100804.25;;;5.22;75.36
71976;BME280;68326;52.124;5.424;2024-01-16T11:26:28;100802.63;;;5.47;75.26
71976;BME280;68326;52.124;5.424;2024-01-16T11:28:58;100795.22;;;5.37;74.29
71976;BME280;68326;52.124;5.424;2024-01-16T11:31:33;100795.25;;;5.35;73.64
71976;BME280;68326;52.124;5.424;2024-01-16T11:34:01;100783.44;;;5.28;73.32
71976;BME280;68326;52.124;5.424;2024-01-16T11:36:49;100782.47;;;5.30;74.36
71976;BME280;68326;52.124;5.424;2024-01-16T11:39:24;100778.78;;;5.39;73.00
71976;BME280;68326;52.124;5.424;2024-01-16T11:41:57;100787.63;;;5.60;72.16
71976;BME280;68326;52.124;5.424;2024-01-16T11:44:47;100778.81;;;5.67;72.17
71976;BME280;68326;52.124;5.424;2024-01-16T11:47:25;100788.63;;;5.55;71.87
71976;BME280;68326;52.124;5.424;2024-01-16T11:50:09;100777.44;;;5.56;72.38
71976;BME280;68326;52.124;5.424;2024-01-16T11:52:43;100779.69;;;5.66;71.69
71976;BME280;68326;52.124;5.424;2024-01-16T11:55:33;100777.13;;;5.93;71.58
71976;BME280;68326;52.124;5.424;2024-01-16T12:00:58;100774.75;;;5.59;73.14
71976;BME280;68326;52.124;5.424;2024-01-16T12:03:25;100772.28;;;5.56;72.13
71976;BME280;68326;52.124;5.424;2024-01-16T12:06:01;100771.09;;;5.66;70.74
71976;BME280;68326;52.124;5.424;2024-01-16T12:08:30;100770.63;;;5.81;69.89
71976;BME280;68326;52.124;5.424;2024-01-16T12:10:57;100773.84;;;5.88;70.02
71976;BME280;68326;52.124;5.424;2024-01-16T12:13:24;100764.31;;;5.90;69.37
71976;BME280;68326;52.124;5.424;2024-01-16T12:16:03;100762.13;;;6.06;69.60
71976;BME280;68326;52.124;5.424;2024-01-16T12:18:31;100767.09;;;5.84;69.29
71976;BME280;68326;52.124;5.424;2024-01-16T12:21:10;100761.84;;;5.87;68.88
71976;BME280;68326;52.124;5.424;2024-01-16T12:23:37;100755.66;;;5.64;68.59
71976;BME280;68326;52.124;5.424;2024-01-16T12:26:21;100748.13;;;5.57;69.82
71976;BME280;68326;52.124;5.424;2024-01-16T12:28:52;100752.19;;;5.37;69.97
71976;BME280;68326;52.124;5.424;2024-01-16T12:31:26;100755.75;;;5.03;71.05
71976;BME280;68326;52.124;5.424;2024-01-16T12:33:53;100757.78;;;4.94;70.55
71976;BME280;68326;52.124;5.424;2024-01-16T12:36:29;100750.19;;;4.87;70.80
71976;BME280;68326;52.124;5.424;2024-01-16T12:38:56;100748.41;;;4.91;70.98
71976;BME280;68326;52.124;5.424;2024-01-16T12:41:24;100748.72;;;4.79;71.37
71976;BME280;68326;52.124;5.424;2024-01-16T12:44:07;100742.03;;;4.72;71.86
71976;BME280;68326;52.124;5.424;2024-01-16T12:46:42;100750.97;;;4.91;71.24
71976;BME280;68326;52.124;5.424;2024-01-16T12:49:09;100744.59;;;5.03;70.48
71976;BME280;68326;52.124;5.424;2024-01-16T12:51:38;100740.75;;;5.16;70.71
71976;BME280;68326;52.124;5.424;2024-01-16T12:54:15;100736.84;;;5.32;70.14
71976;BME280;68326;52.124;5.424;2024-01-16T12:56:42;100734.69;;;5.19;69.76
71976;BME280;68326;52.124;5.424;2024-01-16T12:59:13;100743.94;;;5.26;70.06
71976;BME280;68326;52.124;5.424;2024-01-16T13:01:42;100740.25;;;5.33;69.09
71976;BME280;68326;52.124;5.424;2024-01-16T13:04:09;100738.94;;;5.48;69.98
71976;BME280;68326;52.124;5.424;2024-01-16T13:06:36;100730.19;;;5.54;69.06
71976;BME280;68326;52.124;5.424;2024-01-16T13:09:13;100724.28;;;5.22;68.84
71976;BME280;68326;52.124;5.424;2024-01-16T13:11:49;100724.19;;;5.25;69.90